sensor_id;sensor_type;location;lat;lon;timestamp;temperature;humidity
59703;DHT22;45570;48.782;8.332;2023-08-17T06:27:36;19.20;99.90
59703;DHT22;45570;48.782;8.332;2023-08-17T06:30:48;19.40;99.90
59703;DHT22;45570;48.782;8.332;2023-08-17T06:35:45;19.50;99.90
59703;DHT22;45570;48.782;8.332;2023-08-17T06:38:15;19.60;99.90
59703;DHT22;45570;48.782;8.332;2023-08-17T06:40:45;19.70;99.90
59703;DHT22;45570;48.782;8.332;2023-08-17T06:43:15;19.90;99.90
59703;DHT22;45570;48.782;8.332;2023-08-17T06:45:45;20.00;99.90
59703;DHT22;45570;48.782;8.332;2023-08-17T06:48:14;20.10;99.90
59703;DHT22;45570;48.782;8.332;2023-08-17T06:50:45;20.20;99.90
59703;DHT22;45570;48.782;8.332;2023-08-17T06:53:14;20.40;99.90
59703;DHT22;45570;48.782;8.332;2023-08-17T06:55:43;20.50;99.90
59703;DHT22;45570;48.782;8.332;2023-08-17T06:58:12;20.60;99.90
59703;DHT22;45570;48.782;8.332;2023-08-17T07:00:42;20.80;99.90
59703;DHT22;45570;48.782;8.332;2023-08-17T07:03:13;21.00;99.90
59703;DHT22;45570;48.782;8.332;2023-08-17T07:05:42;21.20;99.90
59703;DHT22;45570;48.782;8.332;2023-08-17T07:08:13;21.30;99.90
59703;DHT22;45570;48.782;8.332;2023-08-17T07:10:42;21.50;99.90
59703;DHT22;45570;48.782;8.332;2023-08-17T07:13:11;21.70;99.90
59703;DHT22;45570;48.782;8.332;2023-08-17T07:15:40;21.90;99.90
59703;DHT22;45570;48.782;8.332;2023-08-17T07:18:09;22.00;99.90
59703;DHT22;45570;48.782;8.332;2023-08-17T07:20:38;22.30;99.90
59703;DHT22;45570;48.782;8.332;2023-08-17T07:23:08;22.50;99.90
59703;DHT22;45570;48.782;8.332;2023-08-17T07:25:38;22.70;99.90
59703;DHT22;45570;48.782;8.332;2023-08-17T07:28:08;22.80;99.90
59703;DHT22;45570;48.782;8.332;2023-08-17T07:30:37;22.90;99.90
59703;DHT22;45570;48.782;8.332;2023-08-17T07:33:06;23.00;99.90
59703;DHT22;45570;48.782;8.332;2023-08-17T07:35:35;23.10;99.90
59703;DHT22;45570;48.782;8.332;2023-08-17T07:38:04;23.20;99.90
59703;DHT22;45570;48.782;8.332;2023-08-17T07:40:36;23.10;99.90
59703;DHT22;45570;48.782;8.332;2023-08-17T07:43:06;23.00;99.90
59703;DHT22;45570;48.782;8.332;2023-08-17T07:45:36;23.10;99.90
59703;DHT22;45570;48.782;8.332;2023-08-17T07:48:06;23.10;99.90
59703;DHT22;45570;48.782;8.332;2023-08-17T07:50:35;23.40;99.90
59703;DHT22;45570;48.782;8.332;2023-08-17T07:53:04;23.70;99.90
59703;DHT22;45570;48.782;8.332;2023-08-17T07:55:34;23.80;99.90
59703;DHT22;45570;48.782;8.332;2023-08-17T07:58:03;23.80;99.90
59703;DHT22;45570;48.782;8.332;2023-08-17T08:00:35;23.80;99.90
59703;DHT22;45570;48.782;8.332;2023-08-17T08:03:06;23.90;99.90
59703;DHT22;45570;48.782;8.332;2023-08-17T08:05:36;24.00;99.90
59703;DHT22;45570;48.782;8.332;2023-08-17T08:08:05;24.10;99.90
59703;DHT22;45570;48.782;8.332;2023-08-17T08:10:34;24.10;99.90
59703;DHT22;45570;48.782;8.332;2023-08-17T08:13:04;24.20;99.90
59703;DHT22;45570;48.782;8.332;2023-08-17T08:15:35;24.60;99.90
59703;DHT22;45570;48.782;8.332;2023-08-17T08:18:04;25.00;99.90
59703;DHT22;45570;48.782;8.332;2023-08-17T08:20:34;25.00;99.90
59703;DHT22;45570;48.782;8.332;2023-08-17T08:23:03;25.20;99.90
59703;DHT22;45570;48.782;8.332;2023-08-17T08:25:32;25.40;99.90
59703;DHT22;45570;48.782;8.332;2023-08-17T08:28:02;25.30;99.90
59703;DHT22;45570;48.782;8.332;2023-08-17T08:30:31;25.60;99.90
59703;DHT22;45570;48.782;8.332;2023-08-17T08:33:02;25.40;99.90
59703;DHT22;45570;48.782;8.332;2023-08-17T08:35:32;25.50;99.90
59703;DHT22;45570;48.782;8.332;2023-08-17T08:38:01;25.70;99.90
59703;DHT22;45570;48.782;8.332;2023-08-17T08:40:31;25.50;99.90
59703;DHT22;45570;48.782;8.332;2023-08-17T08:43:00;25.70;99.90
59703;DHT22;45570;48.782;8.332;2023-08-17T09:18:13;25.10;99.90
59703;DHT22;45570;48.782;8.332;2023-08-17T18:55:14;24.70;99.90
59703;DHT22;45570;48.782;8.332;2023-08-17T18:57:44;24.60;99.90
59703;DHT22;45570;48.782;8.332;2023-08-17T19:00:14;24.40;99.90
59703;DHT22;45570;48.782;8.332;2023-08-17T19:02:43;24.20;99.90
59703;DHT22;45570;48.782;8.332;2023-08-17T19:05:12;24.00;99.90
59703;DHT22;45570;48.782;8.332;2023-08-17T19:07:42;24.00;99.90
59703;DHT22;45570;48.782;8.332;2023-08-17T19:10:11;23.80;99.90
59703;DHT22;45570;48.782;8.332;2023-08-17T19:12:42;23.70;99.90
59703;DHT22;45570;48.782;8.332;2023-08-17T19:15:11;23.70;99.90
59703;DHT22;45570;48.782;8.332;2023-08-17T19:17:40;23.50;99.90
59703;DHT22;45570;48.782;8.332;2023-08-17T19:20:10;23.50;99.90
59703;DHT22;45570;48.782;8.332;2023-08-17T19:22:39;23.40;99.90
59703;DHT22;45570;48.782;8.332;2023-08-17T19:25:09;23.30;99.90
59703;DHT22;45570;48.782;8.332;2023-08-17T19:27:38;23.20;99.90
59703;DHT22;45570;48.782;8.332;2023-08-17T19:30:10;23.10;99.90
59703;DHT22;45570;48.782;8.332;2023-08-17T19:32:40;23.10;99.90
59703;DHT22;45570;48.782;8.332;2023-08-17T19:35:09;23.00;99.90
59703;DHT22;45570;48.782;8.332;2023-08-17T19:37:39;23.00;99.90
59703;DHT22;45570;48.782;8.332;2023-08-17T19:40:09;22.90;99.90
59703;DHT22;45570;48.782;8.332;2023-08-17T19:42:38;22.90;99.90
59703;DHT22;45570;48.782;8.332;2023-08-17T19:45:10;22.80;99.90
59703;DHT22;45570;48.782;8.332;2023-08-17T19:47:39;22.80;99.90
59703;DHT22;45570;48.782;8.332;2023-08-17T19:50:08;22.80;99.90
59703;DHT22;45570;48.782;8.332;2023-08-17T19:52:38;22.80;99.90
59703;DHT22;45570;48.782;8.332;2023-08-17T19:55:08;22.70;99.90
59703;DHT22;45570;48.782;8.332;2023-08-17T19:57:38;22.70;99.90
59703;DHT22;45570;48.782;8.332;2023-08-17T20:00:10;22.80;99.90
59703;DHT22;45570;48.782;8.332;2023-08-17T20:02:40;22.70;99.90
